sensor_id;sensor_type;location;lat;lon;timestamp;temperature;humidity
13835;DHT22;6988;52.614;13.500;2024-02-21T00:03:34;8.00;99.90
13835;DHT22;6988;52.614;13.500;2024-02-21T00:08:26;8.00;99.90
13835;DHT22;6988;52.614;13.500;2024-02-21T00:13:18;8.00;99.90
13835;DHT22;6988;52.614;13.500;2024-02-21T00:18:10;8.00;99.90
13835;DHT22;6988;52.614;13.500;2024-02-21T00:23:04;8.00;99.90
13835;DHT22;6988;52.614;13.500;2024-02-21T00:27:56;8.00;99.90
13835;DHT22;6988;52.614;13.500;2024-02-21T00:32:48;7.90;99.90
13835;DHT22;6988;52.614;13.500;2024-02-21T00:37:40;7.90;99.90
13835;DHT22;6988;52.614;13.500;2024-02-21T00:42:33;7.90;99.90
13835;DHT22;6988;52.614;13.500;2024-02-21T00:47:25;7.90;99.90
13835;DHT22;6988;52.614;13.500;2024-02-21T00:52:17;7.90;99.90
13835;DHT22;6988;52.614;13.500;2024-02-21T00:57:09;8.00;99.90
13835;DHT22;6988;52.614;13.500;2024-02-21T01:02:02;8.10;99.90
13835;DHT22;6988;52.614;13.500;2024-02-21T01:06:54;7.90;99.90
13835;DHT22;6988;52.614;13.500;2024-02-21T01:11:46;7.90;99.90
13835;DHT22;6988;52.614;13.500;2024-02-21T01:16:38;7.90;99.90
13835;DHT22;6988;52.614;13.500;2024-02-21T01:21:31;7.90;99.90
13835;DHT22;6988;52.614;13.500;2024-02-21T01:26:23;7.90;99.90
13835;DHT22;6988;52.614;13.500;2024-02-21T01:31:15;7.90;99.90
13835;DHT22;6988;52.614;13.500;2024-02-21T01:36:07;7.90;99.90
13835;DHT22;6988;52.614;13.500;2024-02-21T01:41:00;7.90;99.90
13835;DHT22;6988;52.614;13.500;2024-02-21T01:45:53;7.90;99.90
13835;DHT22;6988;52.614;13.500;2024-02-21T01:50:47;7.90;99.90
13835;DHT22;6988;52.614;13.500;2024-02-21T01:55:41;8.00;99.90
13835;DHT22;6988;52.614;13.500;2024-02-21T02:00:36;8.00;99.90
13835;DHT22;6988;52.614;13.500;2024-02-21T02:05:30;8.00;99.90
13835;DHT22;6988;52.614;13.500;2024-02-21T02:10:22;8.10;99.90
13835;DHT22;6988;52.614;13.500;2024-02-21T02:15:15;8.10;99.90
13835;DHT22;6988;52.614;13.500;2024-02-21T02:20:09;8.10;99.90
13835;DHT22;6988;52.614;13.500;2024-02-21T02:25:03;8.20;99.90
13835;DHT22;6988;52.614;13.500;2024-02-21T02:29:56;8.20;99.90
13835;DHT22;6988;52.614;13.500;2024-02-21T02:34:51;8.20;99.90
13835;DHT22;6988;52.614;13.500;2024-02-21T02:39:42;8.20;99.90
13835;DHT22;6988;52.614;13.500;2024-02-21T02:44:36;8.10;99.90
13835;DHT22;6988;52.614;13.500;2024-02-21T02:49:28;8.00;99.90
13835;DHT22;6988;52.614;13.500;2024-02-21T02:54:19;8.00;99.90
13835;DHT22;6988;52.614;13.500;2024-02-21T02:59:11;7.90;99.90
13835;DHT22;6988;52.614;13.500;2024-02-21T03:04:04;7.90;99.90
13835;DHT22;6988;52.614;13.500;2024-02-21T03:08:56;7.80;99.90
13835;DHT22;6988;52.614;13.500;2024-02-21T03:13:48;7.80;99.90
13835;DHT22;6988;52.614;13.500;2024-02-21T03:18:44;7.80;99.90
13835;DHT22;6988;52.614;13.500;2024-02-21T03:23:37;7.80;99.90
13835;DHT22;6988;52.614;13.500;2024-02-21T03:28:29;7.70;99.90
13835;DHT22;6988;52.614;13.500;2024-02-21T03:33:21;7.70;99.90
13835;DHT22;6988;52.614;13.500;2024-02-21T03:38:14;7.70;99.90
13835;DHT22;6988;52.614;13.500;2024-02-21T03:43:07;7.70;99.90
13835;DHT22;6988;52.614;13.500;2024-02-21T03:47:59;7.60;99.90
13835;DHT22;6988;52.614;13.500;2024-02-21T03:52:51;7.60;99.90
13835;DHT22;6988;52.614;13.500;2024-02-21T03:57:42;7.60;99.90
13835;DHT22;6988;52.614;13.500;2024-02-21T04:02:36;7.60;99.90
13835;DHT22;6988;52.614;13.500;2024-02-21T04:07:27;7.60;99.90
13835;DHT22;6988;52.614;13.500;2024-02-21T04:12:19;7.60;99.90
13835;DHT22;6988;52.614;13.500;2024-02-21T04:17:11;7.60;99.90
13835;DHT22;6988;52.614;13.500;2024-02-21T04:22:04;7.60;99.90
13835;DHT22;6988;52.614;13.500;2024-02-21T04:26:56;7.60;99.90
13835;DHT22;6988;52.614;13.500;2024-02-21T04:31:48;7.60;99.90
13835;DHT22;6988;52.614;13.500;2024-02-21T04:36:40;7.80;99.90
13835;DHT22;6988;52.614;13.500;2024-02-21T04:41:35;7.60;99.90
13835;DHT22;6988;52.614;13.500;2024-02-21T04:46:27;7.60;99.90
13835;DHT22;6988;52.614;13.500;2024-02-21T04:51:19;7.60;99.90
13835;DHT22;6988;52.614;13.500;2024-02-21T04:56:11;7.60;99.90
13835;DHT22;6988;52.614;13.500;2024-02-21T05:01:04;7.60;99.90
13835;DHT22;6988;52.614;13.500;2024-02-21T05:05:56;7.80;99.90
13835;DHT22;6988;52.614;13.500;2024-02-21T05:10:48;7.80;99.90
13835;DHT22;6988;52.614;13.500;2024-02-21T05:15:40;7.70;99.90
13835;DHT22;6988;52.614;13.500;2024-02-21T05:20:33;7.70;99.90
13835;DHT22;6988;52.614;13.500;2024-02-21T05:25:25;7.70;99.90
13835;DHT22;6988;52.614;13.500;2024-02-21T05:30:17;7.60;99.90
13835;DHT22;6988;52.614;13.500;2024-02-21T05:35:09;7.60;99.90
13835;DHT22;6988;52.614;13.500;2024-02-21T05:40:02;7.60;99.90
13835;DHT22;6988;52.614;13.500;2024-02-21T05:44:54;7.60;99.90
13835;DHT22;6988;52.614;13.500;2024-02-21T05:49:46;7.70;99.90
13835;DHT22;6988;52.614;13.500;2024-02-21T05:54:39;7.70;99.90
13835;DHT22;6988;52.614;13.500;2024-02-21T05:59:32;7.70;99.90
13835;DHT22;6988;52.614;13.500;2024-02-21T06:04:25;7.60;99.90
13835;DHT22;6988;52.614;13.500;2024-02-21T06:09:17;7.70;99.90
13835;DHT22;6988;52.614;13.500;2024-02-21T06:14:09;7.70;99.90
13835;DHT22;6988;52.614;13.500;2024-02-21T06:19:02;7.70;99.90
13835;DHT22;6988;52.614;13.500;2024-02-21T06:23:54;7.70;99.90
13835;DHT22;6988;52.614;13.500;2024-02-21T06:28:46;7.70;99.90
13835;DHT22;6988;52.614;13.500;2024-02-21T06:33:38;7.80;99.90
13835;DHT22;6988;52.614;13.500;2024-02-21T06:38:31;7.80;99.90
13835;DHT22;6988;52.614;13.500;2024-02-21T06:43:24;7.80;99.90
13835;DHT22;6988;52.614;13.500;2024-02-21T06:48:16;7.80;99.90
13835;DHT22;6988;52.614;13.500;2024-02-21T06:53:09;7.90;99.90
13835;DHT22;6988;52.614;13.500;2024-02-21T06:58:03;7.90;99.90
13835;DHT22;6988;52.614;13.500;2024-02-21T07:02:55;8.00;99.90
13835;DHT22;6988;52.614;13.500;2024-02-21T07:07:46;8.00;99.90
13835;DHT22;6988;52.614;13.500;2024-02-21T07:12:38;8.00;99.90
13835;DHT22;6988;52.614;13.500;2024-02-21T07:17:33;8.00;99.90
13835;DHT22;6988;52.614;13.500;2024-02-21T07:22:25;8.00;99.90
13835;DHT22;6988;52.614;13.500;2024-02-21T07:27:20;8.10;99.90
13835;DHT22;6988;52.614;13.500;2024-02-21T07:32:12;8.10;99.90
13835;DHT22;6988;52.614;13.500;2024-02-21T07:37:05;8.10;99.90
13835;DHT22;6988;52.614;13.500;2024-02-21T07:41:57;8.10;99.90
13835;DHT22;6988;52.614;13.500;2024-02-21T07:46:49;8.10;99.90
13835;DHT22;6988;52.614;13.500;2024-02-21T07:51:41;8.20;99.90
13835;DHT22;6988;52.614;13.500;2024-02-21T07:56:34;8.30;99.90
13835;DHT22;6988;52.614;13.500;2024-02-21T08:01:26;8.30;99.90
13835;DHT22;6988;52.614;13.500;2024-02-21T08:06:18;8.30;99.90
13835;DHT22;6988;52.614;13.500;2024-02-21T08:11:10;8.30;99.90
13835;DHT22;6988;52.614;13.500;2024-02-21T08:16:03;8.30;99.90
13835;DHT22;6988;52.614;13.500;2024-02-21T08:20:55;8.40;99.90
13835;DHT22;6988;52.614;13.500;2024-02-21T08:25:47;8.40;99.90
13835;DHT22;6988;52.614;13.500;2024-02-21T08:30:40;8.50;99.90
13835;DHT22;6988;52.614;13.500;2024-02-21T08:35:36;8.50;99.90
13835;DHT22;6988;52.614;13.500;2024-02-21T08:40:27;8.50;99.90
13835;DHT22;6988;52.614;13.500;2024-02-21T08:45:20;8.50;99.90
13835;DHT22;6988;52.614;13.500;2024-02-21T08:50:12;8.60;99.90
13835;DHT22;6988;52.614;13.500;2024-02-21T08:55:07;8.60;99.90
13835;DHT22;6988;52.614;13.500;2024-02-21T09:00:00;8.70;99.90
13835;DHT22;6988;52.614;13.500;2024-02-21T09:04:52;8.70;99.90
13835;DHT22;6988;52.614;13.500;2024-02-21T09:09:44;8.70;99.90
13835;DHT22;6988;52.614;13.500;2024-02-21T09:14:38;8.80;99.90
13835;DHT22;6988;52.614;13.500;2024-02-21T09:19:30;8.90;99.90
13835;DHT22;6988;52.614;13.500;2024-02-21T09:24:24;8.90;99.90
13835;DHT22;6988;52.614;13.500;2024-02-21T09:29:16;9.00;99.90
13835;DHT22;6988;52.614;13.500;2024-02-21T09:34:09;9.10;99.90
13835;DHT22;6988;52.614;13.500;2024-02-21T09:39:01;9.10;99.90
13835;DHT22;6988;52.614;13.500;2024-02-21T09:43:53;9.20;99.90
13835;DHT22;6988;52.614;13.500;2024-02-21T09:49:00;9.40;99.90
13835;DHT22;6988;52.614;13.500;2024-02-21T09:54:04;9.50;99.90
13835;DHT22;6988;52.614;13.500;2024-02-21T09:58:57;9.60;99.90
13835;DHT22;6988;52.614;13.500;2024-02-21T10:03:50;9.60;99.90
13835;DHT22;6988;52.614;13.500;2024-02-21T10:08:42;9.60;99.90
13835;DHT22;6988;52.614;13.500;2024-02-21T10:13:36;9.60;99.90
13835;DHT22;6988;52.614;13.500;2024-02-21T10:18:29;9.60;99.90
13835;DHT22;6988;52.614;13.500;2024-02-21T10:23:21;9.70;99.90
13835;DHT22;6988;52.614;13.500;2024-02-21T10:28:13;9.70;99.90
13835;DHT22;6988;52.614;13.500;2024-02-21T10:33:06;9.80;99.90
13835;DHT22;6988;52.614;13.500;2024-02-21T10:37:58;10.00;99.90
13835;DHT22;6988;52.614;13.500;2024-02-21T10:42:56;10.00;99.90
13835;DHT22;6988;52.614;13.500;2024-02-21T10:47:55;10.10;99.90
13835;DHT22;6988;52.614;13.500;2024-02-21T10:53:07;10.10;99.90
13835;DHT22;6988;52.614;13.500;2024-02-21T10:58:08;10.00;99.90
13835;DHT22;6988;52.614;13.500;2024-02-21T11:03:05;10.00;99.90
13835;DHT22;6988;52.614;13.500;2024-02-21T11:07:59;10.00;99.90
13835;DHT22;6988;52.614;13.500;2024-02-21T11:12:52;10.00;99.90
13835;DHT22;6988;52.614;13.500;2024-02-21T11:17:53;10.00;99.90
13835;DHT22;6988;52.614;13.500;2024-02-21T11:22:46;10.00;99.90
13835;DHT22;6988;52.614;13.500;2024-02-21T11:27:46;9.90;99.90
13835;DHT22;6988;52.614;13.500;2024-02-21T11:32:38;10.00;99.90
13835;DHT22;6988;52.614;13.500;2024-02-21T11:37:31;10.50;99.90
13835;DHT22;6988;52.614;13.500;2024-02-21T11:42:25;10.30;99.90
13835;DHT22;6988;52.614;13.500;2024-02-21T11:47:18;10.40;99.90
13835;DHT22;6988;52.614;13.500;2024-02-21T11:52:12;10.60;99.90
13835;DHT22;6988;52.614;13.500;2024-02-21T11:57:06;10.90;99.90
13835;DHT22;6988;52.614;13.500;2024-02-21T12:01:58;11.00;99.90
13835;DHT22;6988;52.614;13.500;2024-02-21T12:06:53;11.30;99.90
13835;DHT22;6988;52.614;13.500;2024-02-21T12:11:45;11.40;99.90
13835;DHT22;6988;52.614;13.500;2024-02-21T12:16:48;11.30;99.90
13835;DHT22;6988;52.614;13.500;2024-02-21T12:21:40;11.40;99.90
13835;DHT22;6988;52.614;13.500;2024-02-21T12:26:33;11.40;99.90
13835;DHT22;6988;52.614;13.500;2024-02-21T12:31:26;11.40;99.90
13835;DHT22;6988;52.614;13.500;2024-02-21T12:36:18;11.50;99.90
13835;DHT22;6988;52.614;13.500;2024-02-21T12:41:10;11.50;99.90
13835;DHT22;6988;52.614;13.500;2024-02-21T12:46:03;11.60;99.90
13835;DHT22;6988;52.614;13.500;2024-02-21T12:50:58;11.90;99.90
13835;DHT22;6988;52.614;13.500;2024-02-21T12:55:50;12.20;99.90
13835;DHT22;6988;52.614;13.500;2024-02-21T13:00:42;12.40;99.90
13835;DHT22;6988;52.614;13.500;2024-02-21T13:05:36;12.50;99.90
13835;DHT22;6988;52.614;13.500;2024-02-21T13:10:29;12.40;99.90
13835;DHT22;6988;52.614;13.500;2024-02-21T13:15:21;12.30;99.90
13835;DHT22;6988;52.614;13.500;2024-02-21T13:20:13;12.20;99.90
13835;DHT22;6988;52.614;13.500;2024-02-21T13:25:08;12.30;99.90
13835;DHT22;6988;52.614;13.500;2024-02-21T13:30:01;12.20;99.90
13835;DHT22;6988;52.614;13.500;2024-02-21T13:34:56;12.10;99.90
13835;DHT22;6988;52.614;13.500;2024-02-21T13:39:51;12.10;99.90
13835;DHT22;6988;52.614;13.500;2024-02-21T13:44:45;12.00;99.90
13835;DHT22;6988;52.614;13.500;2024-02-21T13:49:37;11.90;99.90
13835;DHT22;6988;52.614;13.500;2024-02-21T13:54:29;11.80;99.90
13835;DHT22;6988;52.614;13.500;2024-02-21T13:59:21;11.70;99.90
13835;DHT22;6988;52.614;13.500;2024-02-21T14:04:15;11.70;99.90
13835;DHT22;6988;52.614;13.500;2024-02-21T14:09:07;11.60;99.90
13835;DHT22;6988;52.614;13.500;2024-02-21T14:13:59;11.50;99.90
13835;DHT22;6988;52.614;13.500;2024-02-21T14:18:51;11.50;99.90
13835;DHT22;6988;52.614;13.500;2024-02-21T14:23:46;11.50;99.90
13835;DHT22;6988;52.614;13.500;2024-02-21T14:28:38;11.40;99.90
13835;DHT22;6988;52.614;13.500;2024-02-21T14:33:30;11.30;99.90
13835;DHT22;6988;52.614;13.500;2024-02-21T14:38:22;11.20;99.90
13835;DHT22;6988;52.614;13.500;2024-02-21T14:43:16;11.20;99.90
13835;DHT22;6988;52.614;13.500;2024-02-21T14:48:08;11.30;99.90
13835;DHT22;6988;52.614;13.500;2024-02-21T14:53:01;11.20;99.90
13835;DHT22;6988;52.614;13.500;2024-02-21T14:57:53;11.20;99.90
13835;DHT22;6988;52.614;13.500;2024-02-21T15:02:46;11.20;99.90
13835;DHT22;6988;52.614;13.500;2024-02-21T15:07:38;11.20;99.90
13835;DHT22;6988;52.614;13.500;2024-02-21T15:12:31;11.10;99.90
13835;DHT22;6988;52.614;13.500;2024-02-21T15:17:23;11.20;99.90
13835;DHT22;6988;52.614;13.500;2024-02-21T15:22:16;11.20;99.90
13835;DHT22;6988;52.614;13.500;2024-02-21T15:27:10;11.20;99.90
13835;DHT22;6988;52.614;13.500;2024-02-21T15:32:02;11.20;99.90
13835;DHT22;6988;52.614;13.500;2024-02-21T15:36:57;11.20;99.90
13835;DHT22;6988;52.614;13.500;2024-02-21T15:41:51;11.10;99.90
13835;DHT22;6988;52.614;13.500;2024-02-21T15:46:43;11.10;99.90
13835;DHT22;6988;52.614;13.500;2024-02-21T15:51:35;11.10;99.90
13835;DHT22;6988;52.614;13.500;2024-02-21T15:56:30;11.10;99.90
13835;DHT22;6988;52.614;13.500;2024-02-21T16:01:24;11.10;99.90
13835;DHT22;6988;52.614;13.500;2024-02-21T16:06:16;11.00;99.90
13835;DHT22;6988;52.614;13.500;2024-02-21T16:11:13;10.80;99.90
13835;DHT22;6988;52.614;13.500;2024-02-21T16:16:08;10.70;99.90
13835;DHT22;6988;52.614;13.500;2024-02-21T16:21:01;10.60;99.90
13835;DHT22;6988;52.614;13.500;2024-02-21T16:25:55;10.50;99.90
13835;DHT22;6988;52.614;13.500;2024-02-21T16:30:48;10.40;99.90
13835;DHT22;6988;52.614;13.500;2024-02-21T16:35:40;10.30;99.90
13835;DHT22;6988;52.614;13.500;2024-02-21T16:40:35;10.20;99.90
13835;DHT22;6988;52.614;13.500;2024-02-21T16:45:28;10.00;99.90
13835;DHT22;6988;52.614;13.500;2024-02-21T16:50:20;10.00;99.90
13835;DHT22;6988;52.614;13.500;2024-02-21T16:55:12;9.90;99.90
13835;DHT22;6988;52.614;13.500;2024-02-21T17:00:06;9.80;99.90
13835;DHT22;6988;52.614;13.500;2024-02-21T17:05:01;9.70;99.90
13835;DHT22;6988;52.614;13.500;2024-02-21T17:09:54;9.70;99.90
13835;DHT22;6988;52.614;13.500;2024-02-21T17:14:46;9.60;99.90
13835;DHT22;6988;52.614;13.500;2024-02-21T17:19:39;9.50;99.90
13835;DHT22;6988;52.614;13.500;2024-02-21T17:24:31;9.40;99.90
13835;DHT22;6988;52.614;13.500;2024-02-21T17:29:24;9.40;99.90
13835;DHT22;6988;52.614;13.500;2024-02-21T17:34:17;9.30;99.90
13835;DHT22;6988;52.614;13.500;2024-02-21T17:39:12;9.30;99.90
13835;DHT22;6988;52.614;13.500;2024-02-21T17:44:05;9.30;99.90
13835;DHT22;6988;52.614;13.500;2024-02-21T17:48:58;9.20;99.90
13835;DHT22;6988;52.614;13.500;2024-02-21T17:53:50;9.10;99.90
13835;DHT22;6988;52.614;13.500;2024-02-21T17:58:44;9.10;99.90
13835;DHT22;6988;52.614;13.500;2024-02-21T18:03:36;9.00;99.90
13835;DHT22;6988;52.614;13.500;2024-02-21T18:08:28;8.90;99.90
13835;DHT22;6988;52.614;13.500;2024-02-21T18:13:20;8.90;99.90
13835;DHT22;6988;52.614;13.500;2024-02-21T18:18:14;8.80;99.90
13835;DHT22;6988;52.614;13.500;2024-02-21T18:23:06;8.70;99.90
13835;DHT22;6988;52.614;13.500;2024-02-21T18:27:59;8.70;99.90
13835;DHT22;6988;52.614;13.500;2024-02-21T18:32:51;8.60;99.90
13835;DHT22;6988;52.614;13.500;2024-02-21T18:37:45;8.50;99.90
13835;DHT22;6988;52.614;13.500;2024-02-21T18:42:38;8.40;99.90
13835;DHT22;6988;52.614;13.500;2024-02-21T18:47:31;8.40;99.90
13835;DHT22;6988;52.614;13.500;2024-02-21T18:52:22;8.40;99.90
13835;DHT22;6988;52.614;13.500;2024-02-21T18:57:16;8.30;99.90
13835;DHT22;6988;52.614;13.500;2024-02-21T19:02:08;8.20;99.90
13835;DHT22;6988;52.614;13.500;2024-02-21T19:07:01;8.10;99.90
13835;DHT22;6988;52.614;13.500;2024-02-21T19:11:53;8.00;99.90
13835;DHT22;6988;52.614;13.500;2024-02-21T19:16:46;7.90;99.90
13835;DHT22;6988;52.614;13.500;2024-02-21T19:21:37;7.80;99.90
13835;DHT22;6988;52.614;13.500;2024-02-21T19:26:30;7.70;99.90
13835;DHT22;6988;52.614;13.500;2024-02-21T19:31:22;7.70;99.90
13835;DHT22;6988;52.614;13.500;2024-02-21T19:36:15;7.70;99.90
13835;DHT22;6988;52.614;13.500;2024-02-21T19:41:09;7.60;99.90
13835;DHT22;6988;52.614;13.500;2024-02-21T19:46:01;7.60;99.90
13835;DHT22;6988;52.614;13.500;2024-02-21T19:50:53;7.50;99.90
13835;DHT22;6988;52.614;13.500;2024-02-21T19:55:48;7.50;99.90
13835;DHT22;6988;52.614;13.500;2024-02-21T20:00:41;7.50;99.90
13835;DHT22;6988;52.614;13.500;2024-02-21T20:05:33;7.50;99.90
13835;DHT22;6988;52.614;13.500;2024-02-21T20:10:25;7.40;99.90
13835;DHT22;6988;52.614;13.500;2024-02-21T20:15:18;7.40;99.90
13835;DHT22;6988;52.614;13.500;2024-02-21T20:20:12;7.50;99.90
13835;DHT22;6988;52.614;13.500;2024-02-21T20:25:04;7.60;99.90
13835;DHT22;6988;52.614;13.500;2024-02-21T20:29:57;7.70;99.90
13835;DHT22;6988;52.614;13.500;2024-02-21T20:34:50;7.80;99.90
13835;DHT22;6988;52.614;13.500;2024-02-21T20:39:42;7.80;99.90
13835;DHT22;6988;52.614;13.500;2024-02-21T20:44:33;7.90;99.90
13835;DHT22;6988;52.614;13.500;2024-02-21T20:49:27;8.00;99.90
13835;DHT22;6988;52.614;13.500;2024-02-21T20:54:20;8.00;99.90
13835;DHT22;6988;52.614;13.500;2024-02-21T20:59:13;8.10;99.90
13835;DHT22;6988;52.614;13.500;2024-02-21T21:04:05;8.10;99.90
13835;DHT22;6988;52.614;13.500;2024-02-21T21:08:57;8.10;99.90
13835;DHT22;6988;52.614;13.500;2024-02-21T21:13:51;8.10;99.90
13835;DHT22;6988;52.614;13.500;2024-02-21T21:18:43;8.10;99.90
13835;DHT22;6988;52.614;13.500;2024-02-21T21:23:35;8.20;99.90
13835;DHT22;6988;52.614;13.500;2024-02-21T21:28:26;8.20;99.90
13835;DHT22;6988;52.614;13.500;2024-02-21T21:33:20;8.30;99.90
13835;DHT22;6988;52.614;13.500;2024-02-21T21:38:12;8.30;99.90
13835;DHT22;6988;52.614;13.500;2024-02-21T21:43:04;8.20;99.90
13835;DHT22;6988;52.614;13.500;2024-02-21T21:47:56;8.30;99.90
13835;DHT22;6988;52.614;13.500;2024-02-21T21:52:49;8.30;99.90
13835;DHT22;6988;52.614;13.500;2024-02-21T21:57:43;8.30;99.90
13835;DHT22;6988;52.614;13.500;2024-02-21T22:02:35;8.30;99.90
13835;DHT22;6988;52.614;13.500;2024-02-21T22:07:27;8.30;99.90
13835;DHT22;6988;52.614;13.500;2024-02-21T22:12:20;8.40;99.90
13835;DHT22;6988;52.614;13.500;2024-02-21T22:17:12;8.40;99.90
13835;DHT22;6988;52.614;13.500;2024-02-21T22:22:04;8.40;99.90
13835;DHT22;6988;52.614;13.500;2024-02-21T22:26:56;8.50;99.90
13835;DHT22;6988;52.614;13.500;2024-02-21T22:31:51;8.40;99.90
13835;DHT22;6988;52.614;13.500;2024-02-21T22:36:43;8.50;99.90
13835;DHT22;6988;52.614;13.500;2024-02-21T22:41:35;8.50;99.90
13835;DHT22;6988;52.614;13.500;2024-02-21T23:04:31;8.40;99.90
13835;DHT22;6988;52.614;13.500;2024-02-21T23:09:23;8.40;99.90
13835;DHT22;6988;52.614;13.500;2024-02-21T23:14:15;8.40;99.90
13835;DHT22;6988;52.614;13.500;2024-02-21T23:19:09;8.40;99.90
13835;DHT22;6988;52.614;13.500;2024-02-21T23:24:03;8.40;99.90
13835;DHT22;6988;52.614;13.500;2024-02-21T23:28:55;8.50;99.90
13835;DHT22;6988;52.614;13.500;2024-02-21T23:33:48;8.50;99.90
13835;DHT22;6988;52.614;13.500;2024-02-21T23:38:40;8.50;99.90
13835;DHT22;6988;52.614;13.500;2024-02-21T23:43:39;8.40;99.90
13835;DHT22;6988;52.614;13.500;2024-02-21T23:48:32;8.50;99.90
13835;DHT22;6988;52.614;13.500;2024-02-21T23:53:25;8.50;99.90
13835;DHT22;6988;52.614;13.500;2024-02-21T23:58:17;8.50;99.90
